Time;durP1;ratioP1;P1;durP2;ratioP2;P2;SDS_P1;SDS_P2;PMS_P1;PMS_P2;Temp;Humidity;BMP_temperature;BMP_pressure;BME280_temperature;BME280_humidity;BME280_pressure;Samples;Min_cycle;Max_cycle;Signal;HPM_P1;HPM_P2
2023/07/14 00:00:23;;;;;;;3.65;1.30;;;17.40;97.50;;;17.38;82.53;97533.28;4983150;28;20574;-36
2023/07/14 00:02:51;;;;;;;1.88;1.10;;;17.50;97.30;;;17.40;82.27;97534.03;4987424;28;20053;-37
2023/07/14 00:05:20;;;;;;;2.70;1.15;;;17.50;97.20;;;17.41;82.79;97523.28;4984508;28;20030;-36
2023/07/14 00:07:48;;;;;;;2.95;1.10;;;17.50;97.30;;;17.32;82.88;97513.19;4988486;28;20103;-36
2023/07/14 00:10:22;;;;;;;2.33;1.13;;;17.50;97.30;;;17.44;85.35;97535.56;4987365;28;20041;-36
2023/07/14 00:12:51;;;;;;;2.67;1.10;;;17.50;97.90;;;17.43;86.03;97532.03;4989428;28;20388;-36
2023/07/14 00:15:18;;;;;;;3.58;1.17;;;17.50;98.10;;;17.43;85.86;97524.03;4991137;28;20608;-36
2023/07/14 00:17:46;;;;;;;3.03;1.10;;;17.50;98.10;;;17.41;84.82;97523.28;4988321;28;20034;-36
2023/07/14 00:20:19;;;;;;;2.72;1.10;;;17.50;97.90;;;17.39;83.82;97519.84;4988747;28;20030;-37
2023/07/14 00:22:45;;;;;;;1.40;0.90;;;17.40;98.00;;;17.36;82.76;97523.56;4990832;28;20500;-36
2023/07/14 00:25:12;;;;;;;3.55;1.27;;;17.40;97.50;;;17.32;81.10;97523.88;4991092;28;20026;-36
2023/07/14 00:27:37;;;;;;;4.90;1.17;;;17.40;97.20;;;17.20;80.59;97512.13;4988880;28;20105;-37
2023/07/14 00:30:19;;;;;;;1.33;0.98;;;17.40;97.10;;;17.19;80.55;97526.41;4987958;28;20048;-36
2023/07/14 00:32:47;;;;;;;2.17;1.13;;;17.30;97.00;;;17.14;80.81;97521.38;4984731;28;20042;-36
2023/07/14 00:35:21;;;;;;;1.50;1.10;;;17.20;97.10;;;17.08;83.16;97508.41;4989213;28;20036;-36
2023/07/14 00:37:49;;;;;;;2.88;1.20;;;17.10;97.70;;;17.01;81.95;97511.56;4983938;28;20778;-36
2023/07/14 00:40:40;;;;;;;1.08;0.77;;;17.10;97.40;;;16.93;82.38;97512.88;4991075;28;20049;-37
2023/07/14 00:43:24;;;;;;;2.83;1.13;;;17.00;97.50;;;16.86;83.34;97516.03;4990460;28;20045;-36
2023/07/14 00:45:52;;;;;;;2.47;1.08;;;16.90;97.70;;;16.84;82.92;97508.13;5007064;28;20206;-36
2023/07/14 00:48:24;;;;;;;3.50;1.10;;;16.90;97.70;;;16.83;84.69;97511.72;4984639;28;20467;-36
2023/07/14 00:51:13;;;;;;;1.92;1.30;;;16.90;98.10;;;16.86;85.23;97506.22;4990327;28;20085;-36
2023/07/14 00:53:43;;;;;;;2.72;1.20;;;17.00;98.40;;;16.86;87.00;97492.91;5016737;28;20426;-36
2023/07/14 00:56:14;;;;;;;2.05;1.20;;;17.00;98.80;;;16.96;85.27;97502.03;4981509;28;20127;-36
2023/07/14 00:58:49;;;;;;;2.80;1.50;;;17.00;98.50;;;17.02;85.04;97497.31;4990497;28;20113;-36
2023/07/14 01:01:22;;;;;;;3.38;1.30;;;17.10;98.40;;;17.05;84.30;97495.31;4986671;28;20038;-36
2023/07/14 01:03:55;;;;;;;3.92;1.20;;;17.10;98.20;;;17.08;85.15;97504.91;4979482;28;20295;-36
2023/07/14 01:06:31;;;;;;;3.10;1.20;;;17.10;98.40;;;17.08;85.87;97497.75;4987165;28;20033;-36
2023/07/14 01:09:05;;;;;;;5.43;1.40;;;17.10;98.60;;;17.06;85.84;97490.81;4983871;28;20034;-36
2023/07/14 01:11:42;;;;;;;2.13;1.27;;;17.10;98.70;;;17.06;85.56;97493.47;4999256;28;20514;-36
2023/07/14 01:14:32;;;;;;;3.10;1.17;;;17.10;98.70;;;17.06;85.93;97499.66;4984307;28;20364;-36
2023/07/14 01:17:01;;;;;;;4.80;1.48;;;17.10;98.80;;;17.04;86.43;97495.41;5008215;28;20486;-36
2023/07/14 01:19:55;;;;;;;4.10;1.35;;;17.10;98.90;;;16.92;85.55;97479.22;4985379;28;20104;-36
2023/07/14 01:22:30;;;;;;;3.15;1.27;;;17.10;98.80;;;16.93;86.44;97494.22;4988475;28;20061;-36
2023/07/14 01:25:17;;;;;;;1.30;1.00;;;17.00;98.90;;;16.88;86.97;97493.66;4988107;28;20038;-36
2023/07/14 01:27:42;;;;;;;1.77;1.23;;;16.90;99.10;;;16.81;89.29;97492.28;4987855;28;20045;-36
2023/07/14 01:30:09;;;;;;;2.22;1.20;;;16.90;99.60;;;16.72;91.32;97487.53;4982862;28;20404;-36
2023/07/14 01:32:43;;;;;;;3.35;1.50;;;16.80;99.90;;;16.60;93.71;97482.00;4975491;28;20058;-36
2023/07/14 01:35:09;;;;;;;1.45;1.10;;;16.70;99.90;;;16.45;95.45;97469.59;4984312;28;20426;-36
2023/07/14 01:37:37;;;;;;;2.72;1.30;;;16.60;99.90;;;16.30;94.96;97465.19;5007070;28;20034;-36
2023/07/14 01:40:12;;;;;;;2.55;1.30;;;16.50;99.90;;;16.23;94.97;97464.69;4989387;28;20065;-36
2023/07/14 01:42:49;;;;;;;2.15;1.35;;;16.40;99.90;;;16.25;94.59;97477.91;4981972;28;20919;-36
2023/07/14 01:45:18;;;;;;;1.63;1.10;;;16.30;99.90;;;16.18;94.26;97472.06;4981198;28;20052;-36
2023/07/14 01:47:50;;;;;;;3.28;1.40;;;16.30;99.90;;;16.12;95.23;97478.63;5010716;28;20706;-36
2023/07/14 01:50:42;;;;;;;5.50;1.23;;;16.20;99.90;;;16.05;95.46;97477.25;4986615;28;20089;-36
2023/07/14 01:53:19;;;;;;;2.55;1.48;;;16.20;99.90;;;15.99;95.70;97459.84;4991636;28;20486;-36
2023/07/14 01:55:47;;;;;;;4.28;1.80;;;16.10;99.90;;;15.87;96.85;97452.56;5016787;28;20042;-36
2023/07/14 01:58:22;;;;;;;3.13;1.58;;;16.10;99.90;;;15.91;97.21;97464.75;5011319;28;20057;-36
2023/07/14 02:00:51;;;;;;;4.50;1.60;;;16.00;99.90;;;15.77;97.95;97452.25;5006162;28;20052;-36
2023/07/14 02:03:29;;;;;;;2.40;1.70;;;16.00;99.90;;;15.76;99.03;97455.84;4981251;28;20035;-36
2023/07/14 02:05:55;;;;;;;3.60;1.80;;;15.90;99.90;;;15.81;99.74;97469.75;5014505;28;20028;-36
2023/07/14 02:08:24;;;;;;;2.13;1.20;;;15.90;99.90;;;15.68;100.00;97450.06;4991856;28;20026;-36
2023/07/14 02:10:50;;;;;;;3.03;1.60;;;15.90;99.90;;;15.74;100.00;97462.16;5012750;28;20040;-36
2023/07/14 02:13:15;;;;;;;2.97;1.60;;;15.80;99.90;;;15.71;100.00;97459.69;4986696;28;20038;-36
2023/07/14 02:15:41;;;;;;;3.20;1.50;;;15.80;99.90;;;15.68;100.00;97458.03;4976058;28;20560;-36
2023/07/14 02:18:15;;;;;;;2.97;1.70;;;15.80;99.90;;;15.64;100.00;97454.69;4980443;28;20073;-36
2023/07/14 02:20:43;;;;;;;3.08;1.60;;;15.80;99.90;;;15.61;100.00;97452.25;4961987;28;20037;-36
2023/07/14 02:23:16;;;;;;;4.50;1.75;;;15.70;99.90;;;15.57;100.00;97450.69;4977602;28;20033;-36
2023/07/14 02:25:46;;;;;;;4.32;1.50;;;15.70;99.90;;;15.43;100.00;97434.66;4985160;28;21001;-36
2023/07/14 02:28:13;;;;;;;2.30;1.50;;;15.60;99.90;;;15.52;100.00;97454.53;4981177;28;20030;-36
2023/07/14 02:30:44;;;;;;;5.20;1.35;;;15.60;99.90;;;15.50;100.00;97451.97;4986162;28;20038;-36
2023/07/14 02:33:17;;;;;;;5.18;1.63;;;15.60;99.90;;;15.48;100.00;97456.50;4976546;28;20072;-36
2023/07/14 02:36:01;;;;;;;2.83;1.52;;;15.60;99.90;;;15.44;100.00;97458.47;5007780;28;20038;-36
2023/07/14 02:38:27;;;;;;;3.10;1.48;;;15.60;99.90;;;15.41;100.00;97450.66;5006212;28;20415;-36
2023/07/14 02:41:19;;;;;;;4.38;1.60;;;15.50;99.90;;;15.37;100.00;97443.81;4983261;28;20486;-36
2023/07/14 02:43:52;;;;;;;3.55;1.48;;;15.50;99.90;;;15.37;100.00;97446.47;4975685;28;20041;-36
2023/07/14 02:46:35;;;;;;;2.45;1.60;;;15.50;99.90;;;15.27;100.00;97434.63;5003458;28;20112;-36
2023/07/14 02:49:00;;;;;;;3.58;1.38;;;15.40;99.90;;;15.32;100.00;97450.34;4997463;28;20034;-36
2023/07/14 02:51:26;;;;;;;2.28;1.50;;;15.40;99.90;;;15.30;100.00;97450.41;4985147;28;20518;-36
2023/07/14 02:53:52;;;;;;;2.35;1.70;;;15.40;99.90;;;15.28;100.00;97441.69;4987351;28;20046;-36
2023/07/14 02:56:19;;;;;;;2.95;1.70;;;15.40;99.90;;;15.26;100.00;97446.22;4979883;28;20033;-36
2023/07/14 02:58:48;;;;;;;3.35;1.70;;;15.40;99.90;;;15.23;100.00;97441.06;4980756;28;20045;-36
2023/07/14 03:01:14;;;;;;;4.28;1.90;;;15.40;99.90;;;15.22;100.00;97436.72;4981584;28;20031;-36
2023/07/14 03:03:40;;;;;;;5.00;1.65;;;15.30;99.90;;;15.20;100.00;97444.78;4978582;28;20041;-36
2023/07/14 03:06:06;;;;;;;2.92;1.52;;;15.30;99.90;;;15.18;100.00;97437.81;4980657;28;20034;-36
2023/07/14 03:08:32;;;;;;;2.65;1.45;;;15.30;99.90;;;15.17;100.00;97444.94;4983802;28;20022;-36
2023/07/14 03:10:59;;;;;;;3.45;1.60;;;15.30;99.90;;;15.08;100.00;97429.50;4983121;28;20438;-36
2023/07/14 03:13:26;;;;;;;3.88;1.77;;;15.30;99.90;;;15.05;100.00;97419.03;4982844;28;21403;-36
2023/07/14 03:15:52;;;;;;;3.05;1.80;;;15.30;99.90;;;15.12;100.00;97428.38;4984780;28;20049;-36
2023/07/14 03:18:18;;;;;;;2.70;1.40;;;15.30;99.90;;;15.09;100.00;97425.88;4986466;28;20323;-36
2023/07/14 03:20:45;;;;;;;2.38;1.58;;;15.20;99.90;;;15.07;100.00;97425.13;4986544;28;20449;-36
2023/07/14 03:23:10;;;;;;;2.92;1.50;;;15.20;99.90;;;15.05;100.00;97419.88;4980135;28;20034;-36
2023/07/14 03:25:36;;;;;;;4.78;1.67;;;15.20;99.90;;;15.03;100.00;97423.56;4988535;28;20115;-36
2023/07/14 03:28:03;;;;;;;2.05;1.50;;;15.20;99.90;;;15.00;100.00;97416.66;4983334;28;20037;-36
2023/07/14 03:30:33;;;;;;;2.85;1.75;;;15.10;99.90;;;14.99;100.00;97414.06;4989972;28;20034;-36
2023/07/14 03:32:59;;;;;;;3.45;1.58;;;15.10;99.90;;;14.98;100.00;97417.66;4992121;28;20057;-36
2023/07/14 03:35:25;;;;;;;4.25;1.83;;;15.10;99.90;;;14.92;100.00;97412.69;4988611;28;20490;-36
2023/07/14 03:37:51;;;;;;;2.63;1.90;;;15.10;99.90;;;14.89;100.00;97411.03;4983202;28;20140;-36
2023/07/14 03:40:16;;;;;;;3.00;1.30;;;15.00;99.90;;;14.89;100.00;97411.91;4977836;28;20038;-36
2023/07/14 03:42:43;;;;;;;2.17;1.48;;;15.00;99.90;;;14.87;100.00;97412.91;4977894;28;21060;-36
2023/07/14 03:45:09;;;;;;;3.15;1.65;;;15.00;99.90;;;14.86;100.00;97408.56;4983620;28;20030;-36
2023/07/14 03:47:36;;;;;;;4.30;1.73;;;15.00;99.90;;;14.86;100.00;97409.41;4987924;28;20462;-36
2023/07/14 03:50:02;;;;;;;3.22;1.80;;;15.00;99.90;;;14.85;100.00;97407.69;4991639;28;20062;-36
2023/07/14 03:52:28;;;;;;;5.28;1.80;;;15.00;99.90;;;14.86;100.00;97405.91;4989079;28;20040;-36
2023/07/14 03:54:54;;;;;;;3.63;1.63;;;15.00;99.90;;;14.86;100.00;97404.09;4984941;28;20038;-36
2023/07/14 03:57:19;;;;;;;2.53;1.50;;;15.00;99.90;;;14.89;100.00;97397.75;4976904;28;20388;-35
2023/07/14 03:59:45;;;;;;;6.20;1.92;;;15.00;99.90;;;14.96;100.00;97400.94;4984914;28;20137;-36
2023/07/14 04:02:10;;;;;;;2.10;1.30;;;15.10;99.90;;;15.04;100.00;97404.06;4983826;28;20034;-36
2023/07/14 04:04:36;;;;;;;2.55;1.58;;;15.20;99.90;;;15.15;100.00;97403.47;4982559;28;20026;-36
2023/07/14 04:07:02;;;;;;;3.08;1.60;;;15.30;99.90;;;15.25;100.00;97402.00;4986249;28;20021;-36
2023/07/14 04:09:28;;;;;;;4.45;1.40;;;15.40;99.90;;;15.38;100.00;97402.16;4982162;28;20705;-36
2023/07/14 04:11:54;;;;;;;3.40;1.60;;;15.50;99.90;;;15.53;100.00;97405.75;4988539;28;20057;-36
2023/07/14 04:14:19;;;;;;;5.03;1.73;;;15.60;99.90;;;15.64;100.00;97401.53;4984131;28;20449;-36
2023/07/14 04:16:45;;;;;;;1.73;1.17;;;15.80;99.90;;;15.82;100.00;97412.94;4985776;28;20129;-36
2023/07/14 04:19:11;;;;;;;3.38;1.38;;;15.90;99.90;;;15.92;100.00;97413.28;4985602;28;20030;-36
2023/07/14 04:21:36;;;;;;;2.17;1.55;;;16.00;99.90;;;16.02;100.00;97416.25;4986888;28;20034;-36
2023/07/14 04:24:02;;;;;;;3.88;1.50;;;16.20;99.90;;;16.09;100.00;97420.25;4989624;28;20161;-35
2023/07/14 04:26:29;;;;;;;3.53;1.63;;;16.20;99.90;;;16.15;100.00;97422.56;4986691;28;20030;-36
2023/07/14 04:28:55;;;;;;;3.78;1.60;;;16.30;99.90;;;16.23;100.00;97427.44;4991565;28;20033;-36
2023/07/14 04:31:21;;;;;;;5.43;1.73;;;16.40;99.90;;;16.28;100.00;97424.50;4985193;28;20044;-36
2023/07/14 04:33:50;;;;;;;3.00;1.60;;;16.40;99.90;;;16.29;100.00;97424.41;4988339;28;20027;-36
2023/07/14 04:36:16;;;;;;;5.10;1.50;;;16.40;99.90;;;16.31;100.00;97424.31;4984168;28;20971;-36
2023/07/14 04:39:01;;;;;;;2.88;1.48;;;16.40;99.90;;;16.32;100.00;97426.03;4988302;28;20115;-36
2023/07/14 04:41:26;;;;;;;3.20;1.42;;;16.40;99.90;;;16.35;100.00;97417.88;4986670;28;20144;-36
2023/07/14 04:43:52;;;;;;;2.20;1.35;;;16.50;99.90;;;16.37;100.00;97413.31;4982245;28;20038;-36
2023/07/14 04:46:18;;;;;;;2.83;1.40;;;16.50;99.90;;;16.39;98.34;97409.59;4982657;28;20474;-36
2023/07/14 04:48:44;;;;;;;3.85;1.55;;;16.50;99.90;;;16.46;96.78;97419.88;4977924;28;20632;-35
2023/07/14 04:51:10;;;;;;;2.30;1.45;;;16.60;99.90;;;16.46;95.72;97418.06;4982598;28;20360;-36
2023/07/14 04:53:35;;;;;;;3.13;1.70;;;16.60;99.90;;;16.48;95.67;97416.16;4984144;28;20028;-36
2023/07/14 04:56:01;;;;;;;5.75;1.80;;;16.60;99.90;;;16.53;96.60;97411.44;4986800;28;20117;-36
2023/07/14 04:58:27;;;;;;;2.38;1.48;;;16.60;99.90;;;16.57;96.27;97410.28;4988167;28;20551;-36
2023/07/14 05:00:53;;;;;;;2.33;1.60;;;16.70;99.90;;;16.59;95.85;97400.41;4982289;28;20318;-36
2023/07/14 05:03:18;;;;;;;4.72;1.77;;;16.80;99.90;;;16.65;95.32;97406.28;4977633;28;20177;-36
2023/07/14 05:05:45;;;;;;;3.20;1.70;;;16.80;99.90;;;16.66;94.58;97408.03;4984692;28;20125;-36
2023/07/14 05:08:11;;;;;;;3.28;1.40;;;16.80;99.90;;;16.72;94.93;97407.63;4981931;28;20803;-36
2023/07/14 05:10:38;;;;;;;3.45;1.73;;;16.80;99.90;;;16.74;94.13;97405.72;4991152;28;20064;-36
2023/07/14 05:13:06;;;;;;;4.38;1.70;;;16.90;99.90;;;16.83;94.72;97401.63;4982024;28;20070;-36
2023/07/14 05:15:32;;;;;;;2.90;1.55;;;17.00;99.90;;;16.96;93.74;97400.81;4986327;28;20048;-36
2023/07/14 05:17:58;;;;;;;5.43;1.85;;;17.10;99.90;;;17.03;92.68;97400.41;4984800;28;20034;-36
2023/07/14 05:20:24;;;;;;;3.10;1.50;;;17.20;99.90;;;17.08;92.17;97399.16;4984942;28;20931;-36
2023/07/14 05:22:53;;;;;;;5.38;1.65;;;17.20;99.90;;;17.17;92.46;97397.72;4979400;28;20071;-35
2023/07/14 05:25:19;;;;;;;5.18;1.88;;;17.30;99.90;;;17.18;92.90;97388.81;4981191;28;20037;-35
2023/07/14 05:27:46;;;;;;;4.63;1.77;;;17.30;99.90;;;17.33;92.53;97398.47;4980176;28;20309;-36
2023/07/14 05:30:16;;;;;;;3.45;1.58;;;17.40;99.90;;;17.41;91.75;97402.44;4981435;28;20044;-36
2023/07/14 05:32:43;;;;;;;3.97;2.03;;;17.50;99.90;;;17.46;91.23;97387.88;4981829;28;20553;-36
2023/07/14 05:35:11;;;;;;;3.33;1.65;;;17.60;99.90;;;17.70;90.93;97398.75;4982467;28;20026;-36
2023/07/14 05:37:38;;;;;;;3.25;1.70;;;17.70;99.90;;;17.87;88.92;97397.69;4981627;28;20128;-36
2023/07/14 05:40:06;;;;;;;3.97;1.95;;;17.90;99.90;;;18.06;87.54;97413.28;4979465;28;20107;-36
2023/07/14 05:42:32;;;;;;;3.15;1.67;;;18.10;99.90;;;18.29;87.99;97403.72;5011754;28;20183;-36
2023/07/14 05:44:57;;;;;;;4.30;1.67;;;18.30;99.90;;;18.42;87.51;97397.56;4990230;28;20392;-36
2023/07/14 05:47:26;;;;;;;3.67;1.95;;;18.40;99.90;;;18.58;87.18;97410.72;4973912;28;20071;-36
2023/07/14 05:49:52;;;;;;;3.08;1.65;;;18.60;99.90;;;18.66;88.13;97401.22;4987832;28;20342;-36
2023/07/14 05:52:18;;;;;;;9.70;1.80;;;18.70;99.90;;;18.87;87.32;97404.19;4977895;28;20319;-36
2023/07/14 05:54:45;;;;;;;2.95;1.70;;;18.80;99.90;;;19.03;84.98;97397.78;4977603;28;20456;-36
2023/07/14 05:57:10;;;;;;;3.83;1.90;;;19.00;99.90;;;19.10;83.38;97387.50;4979692;28;20053;-36
2023/07/14 05:59:37;;;;;;;3.70;1.73;;;19.10;99.90;;;19.19;81.72;97401.06;4986220;28;20037;-36
2023/07/14 06:02:02;;;;;;;3.20;2.00;;;19.20;99.90;;;19.23;81.76;97404.38;4977871;28;20058;-36
2023/07/14 06:04:30;;;;;;;2.85;1.52;;;19.20;99.90;;;19.21;83.48;97399.13;4974756;28;20566;-36
2023/07/14 06:06:56;;;;;;;3.60;1.60;;;19.20;99.90;;;19.16;84.59;97395.06;4984682;28;20034;-36
2023/07/14 06:09:22;;;;;;;3.22;2.00;;;19.20;99.90;;;19.11;84.71;97394.56;4980993;28;20089;-36
2023/07/14 06:11:47;;;;;;;2.95;1.60;;;19.20;99.90;;;18.96;86.72;97397.34;4987483;28;20041;-36
2023/07/14 06:14:13;;;;;;;3.50;1.85;;;19.10;99.90;;;18.80;89.09;97394.88;4977810;28;20516;-36
2023/07/14 06:16:39;;;;;;;4.28;1.88;;;18.90;99.90;;;18.73;89.65;97395.41;4989165;28;20034;-36
2023/07/14 06:19:04;;;;;;;3.88;1.98;;;18.80;99.90;;;18.76;89.52;97392.53;4978602;28;20034;-36
2023/07/14 06:21:30;;;;;;;2.92;1.70;;;18.80;99.90;;;18.70;89.71;97386.66;4985265;28;20053;-36
2023/07/14 06:23:56;;;;;;;3.25;1.67;;;18.70;99.90;;;18.69;90.50;97381.44;4987101;28;20088;-36
2023/07/14 06:26:21;;;;;;;3.40;1.80;;;18.70;99.90;;;18.83;90.32;97380.50;4983810;28;20026;-36
2023/07/14 06:28:47;;;;;;;4.57;2.50;;;18.80;99.90;;;19.02;83.22;97372.88;4979052;28;20060;-36
2023/07/14 06:31:14;;;;;;;5.57;2.30;;;19.10;99.90;;;19.30;80.01;97378.91;4973124;28;20038;-35
2023/07/14 06:33:40;;;;;;;3.58;2.05;;;19.30;99.90;;;19.46;78.06;97382.16;4986333;28;20036;-36
2023/07/14 06:36:06;;;;;;;3.83;2.10;;;19.40;99.90;;;19.69;75.55;97374.25;4975026;28;20577;-36
2023/07/14 06:38:33;;;;;;;4.95;2.40;;;19.70;99.90;;;19.98;71.13;97374.78;4987062;28;20458;-36
2023/07/14 06:41:02;;;;;;;6.55;2.20;;;19.90;99.90;;;20.20;68.79;97374.00;4987854;28;20057;-36
2023/07/14 06:43:32;;;;;;;5.30;2.80;;;20.10;99.90;;;20.55;69.19;97374.94;4984609;28;20263;-36
2023/07/14 06:45:58;;;;;;;5.57;2.00;;;20.40;99.90;;;20.84;66.23;97382.56;4980379;28;20068;-36
2023/07/14 06:48:26;;;;;;;4.40;1.83;;;20.70;99.90;;;21.11;64.00;97377.66;4986478;28;20038;-36
2023/07/14 06:50:52;;;;;;;6.20;1.90;;;21.00;99.10;;;21.38;60.81;97364.84;4990109;28;20041;-36
2023/07/14 06:53:18;;;;;;;5.07;1.90;;;21.20;98.50;;;;;;4985327;28;20100;-36
2023/07/14 06:55:45;;;;;;;4.45;2.20;;;21.30;97.30;;;21.34;62.49;97359.72;4987269;28;20026;-36
2023/07/14 06:58:11;;;;;;;9.15;2.20;;;21.30;97.90;;;21.33;59.10;97365.19;4988442;28;20081;-36
2023/07/14 07:00:37;;;;;;;4.82;2.20;;;21.30;97.50;;;21.47;59.01;97366.78;4982226;28;20042;-36
2023/07/14 07:03:05;;;;;;;4.45;2.00;;;21.30;96.90;;;21.57;56.83;97369.56;4981999;28;20045;-37
2023/07/14 07:05:40;;;;;;;3.90;1.90;;;21.40;96.30;;;21.65;57.85;97357.22;4983423;28;20040;-36
2023/07/14 07:08:12;;;;;;;3.00;1.95;;;21.50;96.50;;;21.68;56.92;97351.59;4989219;28;20494;-37
2023/07/14 07:10:41;;;;;;;3.05;1.60;;;21.60;96.20;;;21.80;56.42;97351.56;4988419;28;20077;-36
2023/07/14 07:13:07;;;;;;;6.68;2.08;;;21.60;96.00;;;21.82;55.41;97345.09;4984879;28;20511;-37
2023/07/14 07:15:33;;;;;;;6.65;2.20;;;21.70;95.40;;;21.90;57.96;97345.28;4980541;28;21102;-36
2023/07/14 07:17:58;;;;;;;7.03;2.20;;;21.80;96.10;;;21.99;55.22;97345.50;4986585;28;20031;-36
2023/07/14 07:20:24;;;;;;;4.95;2.17;;;21.90;95.20;;;22.01;54.67;97338.19;4986574;28;20038;-36
2023/07/14 07:22:50;;;;;;;3.25;1.73;;;22.00;95.20;;;22.20;54.69;97345.50;4989410;28;20043;-36
2023/07/14 07:25:18;;;;;;;5.20;2.80;;;22.00;95.20;;;22.30;53.94;97343.78;4987305;28;20046;-36
2023/07/14 07:27:44;;;;;;;4.43;2.10;;;22.10;94.90;;;22.38;53.89;97332.34;4980546;28;20810;-36
2023/07/14 07:30:11;;;;;;;4.60;2.25;;;22.20;94.70;;;22.49;52.00;97338.53;4988516;28;20034;-36
2023/07/14 07:32:37;;;;;;;6.20;2.28;;;22.30;94.10;;;22.65;52.75;97340.72;4986013;28;20646;-36
2023/07/14 07:35:03;;;;;;;3.85;2.00;;;22.40;94.20;;;22.81;51.36;97337.56;4986101;28;20049;-36
2023/07/14 07:37:34;;;;;;;4.20;1.80;;;22.60;93.70;;;23.00;49.80;97344.00;4984574;28;20034;-36
2023/07/14 07:40:02;;;;;;;3.53;1.70;;;22.80;92.90;;;23.13;49.64;97335.72;4983870;28;20053;-36
2023/07/14 07:42:28;;;;;;;6.80;1.80;;;22.90;92.60;;;23.21;50.33;97330.50;4985274;28;20522;-36
2023/07/14 07:44:54;;;;;;;2.20;1.50;;;23.10;92.90;;;23.33;48.61;97336.59;4989428;28;20414;-36
2023/07/14 07:47:20;;;;;;;3.60;1.73;;;23.20;92.10;;;23.33;46.94;97331.22;4982076;28;20291;-36
2023/07/14 07:49:46;;;;;;;3.70;1.60;;;23.20;90.80;;;23.35;46.37;97343.56;4990531;28;20032;-36
2023/07/14 07:52:12;;;;;;;3.50;1.90;;;23.20;90.50;;;23.30;46.78;97321.59;4985449;28;20715;-36
2023/07/14 07:54:39;;;;;;;5.22;1.80;;;23.30;90.50;;;23.45;46.05;97340.88;4986836;28;20041;-36
2023/07/14 07:57:07;;;;;;;4.22;1.73;;;23.30;90.10;;;23.58;48.39;97329.84;4975000;28;20031;-36
2023/07/14 07:59:33;;;;;;;2.78;1.63;;;23.40;90.40;;;23.58;45.01;97300.25;4980458;28;20505;-36
2023/07/14 08:02:00;;;;;;;4.25;1.83;;;23.50;88.50;;;23.78;45.46;97318.13;4983521;28;20041;-36
2023/07/14 08:04:26;;;;;;;4.05;1.80;;;23.60;88.70;;;23.86;44.05;97311.22;4974774;28;20034;-36
2023/07/14 08:06:53;;;;;;;6.05;1.75;;;23.70;86.20;;;23.92;44.28;97305.25;4974457;28;20423;-36
2023/07/14 08:09:19;;;;;;;3.55;1.65;;;23.80;86.80;;;23.99;44.63;97319.84;4975025;28;20034;-36
2023/07/14 08:11:45;;;;;;;3.63;1.80;;;23.80;86.80;;;24.02;44.72;97314.16;4985372;28;20042;-37
2023/07/14 08:14:17;;;;;;;3.90;1.50;;;23.90;87.70;;;24.03;42.95;97294.34;4981106;28;20040;-36
2023/07/14 08:16:43;;;;;;;4.95;1.60;;;24.00;85.50;;;24.24;44.10;97309.47;4976729;28;20037;-36
2023/07/14 08:19:10;;;;;;;5.68;1.88;;;24.10;85.20;;;24.25;42.80;97300.41;5011673;28;20058;-37
2023/07/14 08:21:37;;;;;;;3.28;1.55;;;24.10;83.60;;;24.34;43.04;97303.06;4984932;28;20084;-36
2023/07/14 08:24:05;;;;;;;7.07;1.60;;;24.20;81.70;;;24.44;42.26;97294.94;4978428;28;20100;-36
2023/07/14 08:26:35;;;;;;;2.72;1.65;;;24.30;82.50;;;24.60;40.55;97298.91;4979448;28;20072;-36
2023/07/14 08:29:02;;;;;;;1.83;1.45;;;24.60;79.80;;;24.78;39.79;97313.31;4988105;28;20034;-36
2023/07/14 08:31:28;;;;;;;3.20;1.50;;;24.70;78.60;;;24.86;40.99;97308.03;4983054;28;20083;-37
2023/07/14 08:33:53;;;;;;;2.85;1.27;;;24.80;80.50;;;24.95;39.68;97301.72;4979045;28;20449;-37
2023/07/14 08:36:19;;;;;;;5.03;1.75;;;24.90;78.40;;;25.07;39.76;97296.13;4978556;28;20041;-37
2023/07/14 08:38:45;;;;;;;4.15;1.40;;;25.00;78.30;;;25.25;40.54;97293.50;4985325;28;20140;-37
2023/07/14 08:41:35;;;;;;;3.38;1.50;;;25.20;79.00;;;25.54;40.17;97293.31;4984636;28;20282;-37
2023/07/14 08:45:03;;;;;;;3.17;1.33;;;25.50;77.60;;;25.80;38.10;97290.69;5000859;28;20033;-37
2023/07/14 08:47:32;;;;;;;4.53;1.45;;;25.70;76.00;;;26.02;37.34;97286.72;4980549;28;20091;-36
2023/07/14 08:50:23;;;;;;;3.05;1.60;;;26.00;74.50;;;26.20;37.38;97275.00;5013162;28;20387;-37
2023/07/14 08:52:50;;;;;;;3.10;1.77;;;26.20;73.60;;;26.33;38.19;97290.81;5007616;28;20037;-36
2023/07/14 08:55:21;;;;;;;2.80;1.55;;;26.30;74.10;;;26.46;37.44;97285.81;4985032;28;20299;-36
2023/07/14 08:58:01;;;;;;;3.85;1.25;;;26.40;72.30;;;26.47;37.34;97290.22;5015099;28;20541;-36
2023/07/14 09:00:34;;;;;;;9.02;2.00;;;26.40;71.60;;;26.45;37.23;97278.69;4980707;28;21511;-36
2023/07/14 09:03:11;;;;;;;18.92;3.55;;;26.40;71.90;;;26.59;37.58;97283.53;5008655;28;20030;-36
2023/07/14 09:05:46;;;;;;;9.23;2.00;;;26.60;72.50;;;26.78;37.31;97289.75;4984829;28;21474;-36
2023/07/14 09:08:12;;;;;;;2.50;1.70;;;26.80;71.80;;;26.83;35.86;97277.44;5011376;28;20076;-36
2023/07/14 09:11:09;;;;;;;3.20;1.48;;;26.80;70.20;;;26.80;36.44;97279.63;5013931;28;20119;-36
2023/07/14 09:13:49;;;;;;;3.40;1.30;;;26.80;70.10;;;26.87;36.93;97274.41;4985064;28;20038;-36
2023/07/14 09:16:21;;;;;;;3.33;1.52;;;26.80;70.70;;;26.90;38.57;97274.06;5008326;28;20030;-36
2023/07/14 09:19:30;;;;;;;4.07;1.65;;;26.90;72.50;;;26.95;37.03;97279.84;5011743;28;20120;-36
2023/07/14 09:22:17;;;;;;;4.72;1.80;;;26.90;70.00;;;27.08;36.49;97282.09;4988204;28;20258;-36
2023/07/14 09:25:16;;;;;;;3.33;1.73;;;27.00;70.00;;;27.09;37.91;97279.22;5011706;28;20064;-36
2023/07/14 09:27:42;;;;;;;8.68;1.90;;;27.10;69.40;;;27.11;38.07;97274.50;5011026;28;20038;-36
2023/07/14 09:30:20;;;;;;;1.92;1.50;;;27.10;71.30;;;27.17;38.04;97272.97;4984881;28;20479;-37
2023/07/14 09:32:50;;;;;;;3.00;1.30;;;27.10;72.20;;;27.34;37.51;97266.63;5014682;28;20359;-37
2023/07/14 09:35:21;;;;;;;3.70;1.40;;;27.30;71.60;;;27.51;35.91;97269.38;4983589;28;20033;-37
2023/07/14 09:38:10;;;;;;;4.20;2.05;;;27.40;69.10;;;27.59;36.97;97264.81;4982205;28;20026;-37
2023/07/14 09:40:38;;;;;;;2.55;1.45;;;27.50;68.50;;;27.73;35.81;97266.03;4981584;28;20042;-37
2023/07/14 09:43:05;;;;;;;4.57;1.73;;;27.60;68.50;;;27.80;36.26;97268.94;4976427;28;20367;-37
2023/07/14 09:45:38;;;;;;;3.10;1.50;;;27.80;68.20;;;27.92;35.17;97259.44;4983567;28;20428;-37
2023/07/14 09:48:15;;;;;;;;;;;27.90;68.20;;;27.88;35.12;97255.34;4982524;28;20486;-36
2023/07/14 09:51:27;;;;;;;2.65;1.65;;;27.90;66.20;;;27.86;35.13;97260.09;4982841;28;20163;-37
2023/07/14 09:54:00;;;;;;;3.83;1.65;;;27.90;65.50;;;27.82;35.29;97261.47;4981090;28;20521;-37
2023/07/14 09:56:32;;;;;;;3.15;1.52;;;27.80;65.40;;;27.78;34.75;97254.66;4973970;28;20044;-37
2023/07/14 09:59:07;;;;;;;6.18;1.95;;;27.70;66.20;;;27.65;37.20;97243.50;4974368;28;20429;-37
2023/07/14 10:01:33;;;;;;;2.47;1.60;;;27.70;67.40;;;27.69;36.02;97253.84;4976308;28;20038;-37
2023/07/14 10:04:14;;;;;;;4.15;2.05;;;27.60;66.50;;;27.72;36.42;97247.22;4979813;28;20410;-37
2023/07/14 10:06:41;;;;;;;2.97;1.57;;;27.60;67.50;;;27.69;35.88;97247.56;4984782;28;20034;-37
2023/07/14 10:09:13;;;;;;;4.38;2.03;;;27.70;67.40;;;27.64;35.48;97247.22;4978178;28;20497;-37
2023/07/14 10:11:40;;;;;;;;;;;27.70;66.50;;;27.64;36.49;97242.66;4976582;28;20049;-37
2023/07/14 10:14:36;;;;;;;3.38;1.77;;;27.70;68.30;;;27.68;35.82;97237.75;4986526;28;19919;-37
2023/07/14 10:17:04;;;;;;;5.35;2.03;;;27.70;67.00;;;27.68;35.59;97233.19;4987772;28;20057;-37
2023/07/14 10:19:41;;;;;;;3.60;1.55;;;27.60;66.50;;;27.69;35.49;97234.00;4986966;28;20061;-37
2023/07/14 10:22:10;;;;;;;3.05;1.50;;;27.60;65.20;;;27.54;35.93;97231.13;4986025;28;20532;-37
2023/07/14 10:24:37;;;;;;;2.53;1.45;;;27.50;65.00;;;27.53;36.40;97230.28;4987015;28;20038;-37
2023/07/14 10:27:26;;;;;;;2.97;1.23;;;27.50;66.70;;;27.57;36.09;97231.66;4989191;28;20200;-37
2023/07/14 10:30:08;;;;;;;4.15;1.42;;;27.50;66.30;;;27.52;35.45;97222.34;4982816;28;20059;-37